createdAt,value
2018-02-14T00:00:03.357Z,5.67
2018-02-14T00:02:31.628Z,6.00
2018-02-14T00:04:59.907Z,5.50
2018-02-14T00:07:27.361Z,5.57
2018-02-14T00:09:54.857Z,5.53
2018-02-14T00:12:22.324Z,5.70
2018-02-14T00:14:49.799Z,5.00
2018-02-14T00:17:17.348Z,6.60
2018-02-14T00:19:44.817Z,6.33
2018-02-14T00:22:12.291Z,6.80
2018-02-14T00:24:39.798Z,5.73
2018-02-14T00:27:07.262Z,5.47
2018-02-14T00:29:34.727Z,6.33
2018-02-14T00:32:02.201Z,5.77
2018-02-14T00:34:29.703Z,6.37
2018-02-14T00:36:57.183Z,6.17
2018-02-14T00:39:24.679Z,5.40
2018-02-14T00:41:52.920Z,5.30
2018-02-14T00:44:20.383Z,5.80
2018-02-14T00:46:47.920Z,6.37
2018-02-14T00:49:15.410Z,5.90
2018-02-14T00:51:42.909Z,6.37
2018-02-14T00:54:11.192Z,5.13
2018-02-14T00:56:38.677Z,5.87
2018-02-14T00:59:06.170Z,6.13
2018-02-14T01:01:33.651Z,5.40
2018-02-14T01:04:01.127Z,5.73
2018-02-14T01:06:28.611Z,5.67
2018-02-14T01:08:56.133Z,4.97
2018-02-14T01:11:23.591Z,5.27
2018-02-14T01:13:51.098Z,5.30
2018-02-14T01:16:18.597Z,5.50
2018-02-14T01:18:48.656Z,5.00
2018-02-14T01:21:16.133Z,5.43
2018-02-14T01:23:43.669Z,5.87
2018-02-14T01:26:11.148Z,4.87
2018-02-14T01:28:38.631Z,5.13
2018-02-14T01:31:06.898Z,6.63
2018-02-14T01:33:34.359Z,4.70
2018-02-14T01:36:02.584Z,5.73
2018-02-14T01:38:30.109Z,5.30
2018-02-14T01:40:58.381Z,4.93
2018-02-14T01:43:25.894Z,5.40
2018-02-14T01:45:53.393Z,4.57
2018-02-14T01:48:21.687Z,5.17
2018-02-14T01:50:49.168Z,6.20
2018-02-14T01:53:16.708Z,5.10
2018-02-14T01:55:44.179Z,5.30
2018-02-14T01:58:11.691Z,5.87
2018-02-14T02:00:39.968Z,5.17
2018-02-14T02:03:08.228Z,4.60
2018-02-14T02:05:35.708Z,5.20
2018-02-14T02:08:03.200Z,4.90
2018-02-14T02:10:30.663Z,4.50
2018-02-14T02:12:58.133Z,4.23
2018-02-14T02:15:25.623Z,4.73
2018-02-14T02:17:53.953Z,4.50
2018-02-14T02:20:21.933Z,4.77
2018-02-14T02:22:49.440Z,4.70
2018-02-14T02:25:17.665Z,5.40
2018-02-14T02:27:45.141Z,4.20
2018-02-14T02:30:13.446Z,4.53
2018-02-14T02:32:41.362Z,4.50
2018-02-14T02:35:08.862Z,4.10
2018-02-14T02:37:37.210Z,4.23
2018-02-14T02:40:17.043Z,5.60
2018-02-14T02:42:44.526Z,4.30
2018-02-14T02:45:11.991Z,4.10
2018-02-14T02:47:40.247Z,5.50
2018-02-14T02:50:07.722Z,4.47
2018-02-14T02:52:35.183Z,4.37
2018-02-14T02:55:02.676Z,5.60
2018-02-14T02:57:30.190Z,4.60
2018-02-14T02:59:57.750Z,4.37
2018-02-14T03:02:25.221Z,4.97
2018-02-14T03:04:52.723Z,4.87
2018-02-14T03:07:20.206Z,4.83
2018-02-14T03:09:47.674Z,4.40
2018-02-14T03:12:15.158Z,5.07
2018-02-14T03:14:42.675Z,4.65
2018-02-14T03:17:11.666Z,5.00
2018-02-14T03:19:39.154Z,4.63
2018-02-14T03:22:07.419Z,4.13
2018-02-14T03:24:34.917Z,5.00
2018-02-14T03:27:02.396Z,5.27
2018-02-14T03:29:29.852Z,4.80
2018-02-14T03:31:57.333Z,4.83
2018-02-14T03:34:24.831Z,5.37
2018-02-14T03:36:53.112Z,5.00
2018-02-14T03:39:20.620Z,5.50
2018-02-14T03:41:48.115Z,5.33
2018-02-14T03:44:16.398Z,5.63
2018-02-14T03:46:44.668Z,5.27
2018-02-14T03:49:12.940Z,5.40
2018-02-14T03:51:41.157Z,5.17
2018-02-14T03:54:08.634Z,5.30
2018-02-14T03:56:36.098Z,5.47
2018-02-14T03:59:03.582Z,5.70
2018-02-14T04:01:31.818Z,4.97
2018-02-14T04:03:59.317Z,5.13
2018-02-14T04:06:27.594Z,5.25
2018-02-14T04:08:55.850Z,5.53
2018-02-14T04:11:23.364Z,5.30
2018-02-14T04:13:50.837Z,5.80
2018-02-14T04:16:18.302Z,6.40
2018-02-14T04:18:45.794Z,5.67
2018-02-14T04:21:14.027Z,5.27
2018-02-14T04:23:42.091Z,5.00
2018-02-14T04:26:09.609Z,5.50
2018-02-14T04:28:37.106Z,6.47
2018-02-14T04:31:04.585Z,5.47
2018-02-14T04:33:34.667Z,5.60
2018-02-14T04:36:02.883Z,6.67
2018-02-14T04:38:30.366Z,5.60
2018-02-14T04:40:58.612Z,5.60
2018-02-14T04:43:26.158Z,5.03
2018-02-14T04:45:53.638Z,6.07
2018-02-14T04:48:21.130Z,5.20
2018-02-14T04:50:48.600Z,5.63
2018-02-14T04:53:16.073Z,6.32
2018-02-14T04:55:43.550Z,5.43
2018-02-14T04:58:11.009Z,5.10
2018-02-14T05:00:38.498Z,6.17
2018-02-14T05:03:06.782Z,6.35
2018-02-14T05:05:35.041Z,5.50
2018-02-14T05:08:03.291Z,6.47
2018-02-14T05:10:30.810Z,5.95
2018-02-14T05:12:58.280Z,5.70
2018-02-14T05:15:25.939Z,6.67
2018-02-14T05:17:53.431Z,7.03
2018-02-14T05:20:20.953Z,6.20
2018-02-14T05:22:48.438Z,6.45
2018-02-14T05:25:15.919Z,6.23
2018-02-14T05:27:43.373Z,6.43
2018-02-14T05:30:11.629Z,5.62
2018-02-14T05:32:39.102Z,7.00
2018-02-14T05:35:07.373Z,6.70
2018-02-14T05:37:34.896Z,6.20
2018-02-14T05:40:02.370Z,5.93
2018-02-14T05:42:29.857Z,5.90
2018-02-14T05:44:57.329Z,5.50
2018-02-14T05:47:24.794Z,5.23
2018-02-14T05:49:52.295Z,5.68
2018-02-14T05:52:19.859Z,6.27
2018-02-14T05:54:47.318Z,5.43
2018-02-14T05:57:14.813Z,6.17
2018-02-14T05:59:43.056Z,6.43
2018-02-14T06:02:10.533Z,6.40
2018-02-14T06:04:38.761Z,5.83
2018-02-14T06:07:06.351Z,6.70
2018-02-14T06:09:33.818Z,5.67
2018-02-14T06:12:01.287Z,6.73
2018-02-14T06:14:29.545Z,7.40
2018-02-14T06:16:57.031Z,6.40
2018-02-14T06:19:25.262Z,6.25
2018-02-14T06:21:52.769Z,6.20
2018-02-14T06:24:20.998Z,6.47
2018-02-14T06:26:48.458Z,6.90
2018-02-14T06:29:15.930Z,7.00
2018-02-14T06:31:43.395Z,5.60
2018-02-14T06:34:11.627Z,6.37
2018-02-14T06:36:39.103Z,7.37
2018-02-14T06:39:06.566Z,7.47
2018-02-14T06:41:34.025Z,5.80
2018-02-14T06:44:01.902Z,7.67
2018-02-14T06:46:30.129Z,6.40
2018-02-14T06:48:57.601Z,6.00
2018-02-14T06:51:25.085Z,6.35
2018-02-14T06:53:52.554Z,6.30
2018-02-14T06:56:21.698Z,6.85
2018-02-14T06:58:49.188Z,7.80
2018-02-14T07:01:16.674Z,6.97
2018-02-14T07:03:44.905Z,7.00
2018-02-14T07:06:13.105Z,6.57
2018-02-14T07:08:40.589Z,7.57
2018-02-14T07:11:08.049Z,7.70
2018-02-14T07:13:35.544Z,6.40
2018-02-14T07:16:03.010Z,6.80
2018-02-14T07:18:30.466Z,7.00
2018-02-14T07:20:57.950Z,6.33
2018-02-14T07:23:30.838Z,6.40
2018-02-14T07:25:59.078Z,6.82
2018-02-14T07:28:26.546Z,6.70
2018-02-14T07:30:54.009Z,6.37
2018-02-14T07:33:22.278Z,6.57
2018-02-14T07:35:49.750Z,6.72
2018-02-14T07:38:17.207Z,6.97
2018-02-14T07:40:44.742Z,7.37
2018-02-14T07:43:12.183Z,6.33
2018-02-14T07:45:39.647Z,6.30
2018-02-14T07:48:07.131Z,6.90
2018-02-14T07:50:34.643Z,5.70
2018-02-14T07:53:02.102Z,5.72
2018-02-14T07:55:29.587Z,6.27
2018-02-14T07:57:57.060Z,7.70
2018-02-14T08:00:25.297Z,6.33
2018-02-14T08:02:52.771Z,7.17
2018-02-14T08:05:20.235Z,6.30
2018-02-14T08:07:47.708Z,5.90
2018-02-14T08:10:15.175Z,5.30
2018-02-14T08:12:43.397Z,6.87
2018-02-14T08:15:10.854Z,7.03
2018-02-14T08:17:38.330Z,6.60
2018-02-14T08:20:05.798Z,5.87
2018-02-14T08:22:34.770Z,6.10
2018-02-14T08:25:02.257Z,5.90
2018-02-14T08:27:29.718Z,5.77
2018-02-14T08:29:57.178Z,4.77
2018-02-14T08:32:24.654Z,5.57
2018-02-14T08:34:52.891Z,6.27
2018-02-14T08:37:20.350Z,6.20
2018-02-14T08:39:49.335Z,5.60
2018-02-14T08:42:16.798Z,5.50
2018-02-14T08:44:44.272Z,5.60
2018-02-14T08:47:11.758Z,6.00
2018-02-14T08:49:39.255Z,5.50
2018-02-14T08:52:06.719Z,5.33
2018-02-14T08:54:34.190Z,5.57
2018-02-14T08:57:01.655Z,5.50
2018-02-14T08:59:29.229Z,5.33
2018-02-14T09:01:57.454Z,5.67
2018-02-14T09:04:24.922Z,5.90
2018-02-14T09:06:52.914Z,5.20
2018-02-14T09:09:20.380Z,6.07
2018-02-14T09:11:48.602Z,5.30
2018-02-14T09:14:16.095Z,5.93
2018-02-14T09:16:43.570Z,5.80
2018-02-14T09:19:11.798Z,5.20
2018-02-14T09:21:39.268Z,5.90
2018-02-14T09:24:06.730Z,5.73
2018-02-14T09:26:34.190Z,5.73
2018-02-14T09:29:01.653Z,6.10
2018-02-14T09:31:29.182Z,5.83
2018-02-14T09:33:56.643Z,5.67
2018-02-14T09:36:24.105Z,6.20
2018-02-14T09:38:51.592Z,6.30
2018-02-14T09:41:19.039Z,5.93
2018-02-14T09:43:46.492Z,4.83
2018-02-14T09:46:14.047Z,5.03
2018-02-14T09:48:42.193Z,5.20
2018-02-14T09:51:09.631Z,5.20
2018-02-14T09:53:37.104Z,5.87
2018-02-14T09:56:04.557Z,5.77
2018-02-14T09:58:32.009Z,6.10
2018-02-14T10:00:59.485Z,5.40
2018-02-14T10:03:26.952Z,5.57
2018-02-14T10:05:54.410Z,6.17
2018-02-14T10:08:21.886Z,5.80
2018-02-14T10:10:49.350Z,5.83
2018-02-14T10:13:16.806Z,5.90
2018-02-14T10:15:45.042Z,6.60
2018-02-14T10:18:13.196Z,7.13
2018-02-14T10:20:40.675Z,5.40
2018-02-14T10:23:08.149Z,6.90
2018-02-14T10:25:35.618Z,6.40
2018-02-14T10:28:04.671Z,6.00
2018-02-14T10:30:32.143Z,5.87
2018-02-14T10:32:59.615Z,6.10
2018-02-14T10:35:27.079Z,5.70
2018-02-14T10:37:54.554Z,6.07
2018-02-14T10:40:22.774Z,5.67
2018-02-14T10:42:50.222Z,5.57
2018-02-14T10:45:17.703Z,6.23
2018-02-14T10:47:45.165Z,6.20
2018-02-14T10:50:12.648Z,6.60
2018-02-14T10:52:40.119Z,6.37
2018-02-14T10:55:07.589Z,5.90
2018-02-14T10:57:35.039Z,5.77
2018-02-14T11:00:02.513Z,5.67
2018-02-14T11:05:37.734Z,5.77
2018-02-14T11:08:05.181Z,6.33
2018-02-14T11:10:32.638Z,7.30
2018-02-14T11:13:00.106Z,6.50
2018-02-14T11:15:27.582Z,7.03
2018-02-14T11:17:55.037Z,6.60
2018-02-14T11:20:23.295Z,6.97
2018-02-14T11:22:51.526Z,5.73
2018-02-14T11:25:18.984Z,6.73
2018-02-14T11:27:46.458Z,6.50
2018-02-14T11:30:13.927Z,5.93
2018-02-14T11:32:41.386Z,6.07
2018-02-14T11:35:08.855Z,6.13
2018-02-14T11:37:37.079Z,6.53
2018-02-14T11:40:04.535Z,6.53
2018-02-14T11:42:32.043Z,6.30
2018-02-14T11:45:00.279Z,6.13
2018-02-14T11:47:27.734Z,6.23
2018-02-14T11:49:55.206Z,6.20
2018-02-14T11:52:22.672Z,6.53
2018-02-14T11:54:50.130Z,6.73
2018-02-14T11:57:17.591Z,6.80
2018-02-14T11:59:45.127Z,6.10
2018-02-14T12:02:12.598Z,6.40
2018-02-14T12:04:40.107Z,6.03
2018-02-14T12:07:08.414Z,6.37
2018-02-14T12:09:35.876Z,5.83
2018-02-14T12:12:03.347Z,6.90
2018-02-14T12:14:30.814Z,6.23
2018-02-14T12:16:58.262Z,7.00
2018-02-14T12:19:25.746Z,5.83
2018-02-14T12:21:53.976Z,5.93
2018-02-14T12:24:21.432Z,5.23
2018-02-14T12:26:48.915Z,5.23
2018-02-14T12:29:16.375Z,5.57
2018-02-14T12:31:43.837Z,5.70
2018-02-14T12:34:12.084Z,6.30
2018-02-14T12:36:39.543Z,6.10
2018-02-14T12:39:06.999Z,5.50
2018-02-14T12:41:34.471Z,5.30
2018-02-14T12:44:01.951Z,4.53
2018-02-14T12:46:30.175Z,5.40
2018-02-14T12:48:57.655Z,4.40
2018-02-14T12:51:25.114Z,4.27
2018-02-14T12:53:52.566Z,4.80
2018-02-14T12:56:20.082Z,5.20
2018-02-14T12:58:47.533Z,4.30
2018-02-14T13:01:14.991Z,6.03
2018-02-14T13:03:43.226Z,5.53
2018-02-14T13:06:11.473Z,4.93
2018-02-14T13:08:38.944Z,5.30
2018-02-14T13:11:06.416Z,5.40
2018-02-14T13:13:34.647Z,5.47
2018-02-14T13:16:02.099Z,5.53
2018-02-14T13:18:29.579Z,5.00
2018-02-14T13:20:57.039Z,5.10
2018-02-14T13:23:24.506Z,5.53
2018-02-14T13:25:51.969Z,4.90
2018-02-14T13:28:20.211Z,5.10
2018-02-14T13:30:47.703Z,4.93
2018-02-14T13:33:15.179Z,5.00
2018-02-14T13:35:43.406Z,4.83
2018-02-14T13:38:10.858Z,5.70
2018-02-14T13:40:38.337Z,5.20
2018-02-14T13:43:05.793Z,5.20
2018-02-14T13:45:34.029Z,5.03
2018-02-14T13:48:02.415Z,5.33
2018-02-14T13:50:29.891Z,5.57
2018-02-14T13:52:57.339Z,5.33
2018-02-14T13:55:24.838Z,5.57
2018-02-14T13:57:53.831Z,5.40
2018-02-14T14:00:22.833Z,5.47
2018-02-14T14:02:50.303Z,6.17
2018-02-14T14:05:17.754Z,5.90
2018-02-14T14:07:45.207Z,5.53
2018-02-14T14:10:12.687Z,5.90
2018-02-14T14:12:40.168Z,5.40
2018-02-14T14:15:07.627Z,5.80
2018-02-14T14:17:35.099Z,6.33
2018-02-14T14:20:02.576Z,6.10
2018-02-14T14:22:30.795Z,6.63
2018-02-14T14:24:58.283Z,5.27
2018-02-14T14:27:26.507Z,6.40
2018-02-14T14:29:53.958Z,6.07
2018-02-14T14:32:21.442Z,6.93
2018-02-14T14:34:48.920Z,5.50
2018-02-14T14:37:16.374Z,6.63
2018-02-14T14:39:43.843Z,5.60
2018-02-14T14:42:11.287Z,5.00
2018-02-14T14:44:38.754Z,6.00
2018-02-14T14:47:06.230Z,5.80
2018-02-14T14:49:33.682Z,6.17
2018-02-14T14:52:01.158Z,5.40
2018-02-14T14:54:29.388Z,6.60
2018-02-14T14:56:56.837Z,5.90
2018-02-14T14:59:24.301Z,5.57
2018-02-14T15:01:52.770Z,6.00
2018-02-14T15:04:20.217Z,6.07
2018-02-14T15:06:47.679Z,6.30
2018-02-14T15:09:15.151Z,6.47
2018-02-14T15:11:42.605Z,6.83
2018-02-14T15:14:10.063Z,7.60
2018-02-14T15:16:37.554Z,7.03
2018-02-14T15:19:05.775Z,5.87
2018-02-14T15:21:33.236Z,6.47
2018-02-14T15:24:00.799Z,5.90
2018-02-14T15:26:28.255Z,6.27
2018-02-14T15:28:55.787Z,7.90
2018-02-14T15:31:23.278Z,6.50
2018-02-14T15:33:50.742Z,6.53
2018-02-14T15:36:18.213Z,7.10
2018-02-14T15:38:45.707Z,7.13
2018-02-14T15:41:13.930Z,6.93
2018-02-14T15:43:42.192Z,6.77
2018-02-14T15:46:09.689Z,6.60
2018-02-14T15:48:37.146Z,8.10
2018-02-14T15:51:04.595Z,6.97
2018-02-14T15:53:32.089Z,7.60
2018-02-14T15:55:59.791Z,8.10
2018-02-14T15:58:27.249Z,7.23
2018-02-14T16:00:54.747Z,6.70
2018-02-14T16:03:23.015Z,8.20
2018-02-14T16:05:51.236Z,7.17
2018-02-14T16:08:18.750Z,7.97
2018-02-14T16:10:46.979Z,7.23
2018-02-14T16:13:14.452Z,7.60
2018-02-14T16:15:41.930Z,7.40
2018-02-14T16:18:09.392Z,7.23
2018-02-14T16:20:36.843Z,7.30
2018-02-14T16:23:04.334Z,6.87
2018-02-14T16:25:31.812Z,6.57
2018-02-14T16:27:59.279Z,7.63
2018-02-14T16:30:26.806Z,7.23
2018-02-14T16:32:54.258Z,6.80
2018-02-14T16:35:22.486Z,7.50
2018-02-14T16:37:49.987Z,7.30
2018-02-14T16:40:18.212Z,6.60
2018-02-14T16:42:45.673Z,7.43
2018-02-14T16:45:13.162Z,6.70
2018-02-14T16:47:41.697Z,7.07
2018-02-14T16:50:09.173Z,6.57
2018-02-14T16:52:36.685Z,7.27
2018-02-14T16:55:04.147Z,7.70
2018-02-14T16:57:31.614Z,7.80
2018-02-14T16:59:59.087Z,7.23
2018-02-14T17:02:26.548Z,7.10
2018-02-14T17:04:54.021Z,6.90
2018-02-14T17:07:21.637Z,7.37
2018-02-14T17:09:49.087Z,7.20
2018-02-14T17:12:16.550Z,5.90
2018-02-14T17:14:44.074Z,6.70
2018-02-14T17:17:13.294Z,7.47
2018-02-14T17:19:40.788Z,7.57
2018-02-14T17:22:08.262Z,7.50
2018-02-14T17:24:35.738Z,8.03
2018-02-14T17:27:03.971Z,8.57
2018-02-14T17:29:31.651Z,8.40
2018-02-14T17:31:59.210Z,8.57
2018-02-14T17:34:26.715Z,9.00
2018-02-14T17:36:54.219Z,9.53
2018-02-14T17:39:21.687Z,9.00
2018-02-14T17:41:49.177Z,10.57
2018-02-14T17:44:16.653Z,9.70
2018-02-14T17:46:44.145Z,9.40
2018-02-14T17:49:11.627Z,9.57
2018-02-14T17:51:39.214Z,9.20
2018-02-14T17:54:06.760Z,8.33
2018-02-14T17:56:35.114Z,9.17
2018-02-14T17:59:03.491Z,9.50
2018-02-14T18:01:31.259Z,10.50
2018-02-14T18:03:58.763Z,10.27
2018-02-14T18:06:26.325Z,9.83
2018-02-14T18:08:54.118Z,9.30
2018-02-14T18:11:21.628Z,9.87
2018-02-14T18:13:49.130Z,10.13
2018-02-14T18:16:16.622Z,10.57
2018-02-14T18:18:44.791Z,8.87
2018-02-14T18:21:12.299Z,9.60
2018-02-14T18:23:39.800Z,9.57
2018-02-14T18:26:07.639Z,8.53
2018-02-14T18:28:35.110Z,8.23
2018-02-14T18:31:03.313Z,8.67
2018-02-14T18:33:31.566Z,9.30
2018-02-14T18:35:59.041Z,8.17
2018-02-14T18:38:27.300Z,9.70
2018-02-14T18:40:54.783Z,7.43
2018-02-14T18:43:23.034Z,8.20
2018-02-14T18:45:51.427Z,7.50
2018-02-14T18:48:19.681Z,7.83
2018-02-14T18:50:47.208Z,8.70
2018-02-14T18:53:14.697Z,7.57
2018-02-14T18:55:42.994Z,8.33
2018-02-14T18:58:11.243Z,7.97
2018-02-14T19:00:38.725Z,8.30
2018-02-14T19:03:06.190Z,7.33
2018-02-14T19:05:34.452Z,8.80
2018-02-14T19:08:02.727Z,7.50
2018-02-14T19:10:30.206Z,8.40
2018-02-14T19:12:57.708Z,8.20
2018-02-14T19:15:25.226Z,7.90
2018-02-14T19:17:52.730Z,8.17
2018-02-14T19:20:20.353Z,8.67
2018-02-14T19:22:48.255Z,7.73
2018-02-14T19:25:18.431Z,8.43
2018-02-14T19:27:45.942Z,9.60
2018-02-14T19:30:13.451Z,9.37
2018-02-14T19:32:41.712Z,8.10
2018-02-14T19:35:09.942Z,8.53
2018-02-14T19:37:37.772Z,8.30
2018-02-14T19:40:05.280Z,9.70
2018-02-14T19:42:32.791Z,9.00
2018-02-14T19:45:00.297Z,8.97
2018-02-14T19:47:27.789Z,9.33
2018-02-14T19:49:56.100Z,10.13
2018-02-14T19:52:24.348Z,9.83
2018-02-14T19:54:51.824Z,9.10
2018-02-14T19:57:19.348Z,10.03
2018-02-14T19:59:47.574Z,9.93
2018-02-14T20:02:15.886Z,7.93
2018-02-14T20:04:43.513Z,8.50
2018-02-14T20:07:12.025Z,10.37
2018-02-14T20:09:40.321Z,9.53
2018-02-14T20:12:07.835Z,7.60
2018-02-14T20:14:35.322Z,10.20
2018-02-14T20:17:03.598Z,9.87
2018-02-14T20:19:31.160Z,10.00
2018-02-14T20:21:58.670Z,9.30
2018-02-14T20:24:26.136Z,9.30
2018-02-14T20:26:55.319Z,9.20
2018-02-14T20:29:22.798Z,9.70
2018-02-14T20:31:50.266Z,9.77
2018-02-14T20:34:17.759Z,9.33
2018-02-14T20:36:45.242Z,10.17
2018-02-14T20:39:12.729Z,9.40
2018-02-14T20:41:40.217Z,9.83
2018-02-14T20:44:08.466Z,10.13
2018-02-14T20:46:37.209Z,9.93
2018-02-14T20:49:04.911Z,9.40
2018-02-14T20:51:32.516Z,10.20
2018-02-14T20:53:59.999Z,10.57
2018-02-14T20:56:27.663Z,10.40
2018-02-14T20:58:55.232Z,9.60
2018-02-14T21:01:22.759Z,8.90
2018-02-14T21:03:51.034Z,10.43
2018-02-14T21:06:18.500Z,10.30
2018-02-14T21:08:46.022Z,9.80
2018-02-14T21:11:14.422Z,9.10
2018-02-14T21:13:42.665Z,11.13
2018-02-14T21:16:10.118Z,9.17
2018-02-14T21:18:37.612Z,10.20
2018-02-14T21:21:05.350Z,10.30
2018-02-14T21:23:33.664Z,9.20
2018-02-14T21:26:01.187Z,9.10
2018-02-14T21:28:28.676Z,9.67
2018-02-14T21:30:56.170Z,9.67
2018-02-14T21:33:23.666Z,10.67
2018-02-14T21:35:51.908Z,9.80
2018-02-14T21:38:19.446Z,10.40
2018-02-14T21:40:46.966Z,10.00
2018-02-14T21:43:15.220Z,9.10
2018-02-14T21:45:43.045Z,9.93
2018-02-14T21:48:10.555Z,9.27
2018-02-14T21:50:38.805Z,9.97
2018-02-14T21:53:08.107Z,9.20
2018-02-14T21:55:36.570Z,9.63
2018-02-14T21:58:04.092Z,10.00
2018-02-14T22:00:32.357Z,8.93
2018-02-14T22:02:59.847Z,9.87
2018-02-14T22:05:27.355Z,10.30
2018-02-14T22:07:55.597Z,10.70
2018-02-14T22:10:23.106Z,9.30
2018-02-14T22:12:50.648Z,11.07
2018-02-14T22:15:18.918Z,10.53
2018-02-14T22:17:46.437Z,10.20
2018-02-14T22:20:13.959Z,9.33
2018-02-14T22:22:41.465Z,9.00
2018-02-14T22:25:09.056Z,9.40
2018-02-14T22:27:37.323Z,8.37
2018-02-14T22:30:04.802Z,9.73
2018-02-14T22:32:32.314Z,8.83
2018-02-14T22:34:59.787Z,9.33
2018-02-14T22:37:28.073Z,9.80
2018-02-14T22:39:56.321Z,9.40
2018-02-14T22:42:23.818Z,8.77
2018-02-14T22:44:51.314Z,9.43
2018-02-14T22:47:18.846Z,10.93
2018-02-14T22:49:46.326Z,9.17
2018-02-14T22:52:13.834Z,9.13
2018-02-14T22:54:42.126Z,9.33
2018-02-14T22:57:10.375Z,9.63
2018-02-14T22:59:37.866Z,8.57
2018-02-14T23:02:05.409Z,10.00
2018-02-14T23:04:32.902Z,9.10
2018-02-14T23:07:00.397Z,8.53
2018-02-14T23:09:27.914Z,9.10
2018-02-14T23:11:56.189Z,8.27
2018-02-14T23:14:23.714Z,10.13
2018-02-14T23:16:51.226Z,8.50
2018-02-14T23:19:18.752Z,9.63
2018-02-14T23:21:46.236Z,8.00
2018-02-14T23:24:13.711Z,8.80
2018-02-14T23:26:41.225Z,9.53
2018-02-14T23:29:08.711Z,9.93
2018-02-14T23:31:36.202Z,8.60
2018-02-14T23:34:04.532Z,9.80
2018-02-14T23:36:32.051Z,9.70
2018-02-14T23:38:59.539Z,9.43
2018-02-14T23:41:27.107Z,9.17
2018-02-14T23:43:55.667Z,9.87
2018-02-14T23:46:23.204Z,9.83
2018-02-14T23:48:50.729Z,10.17
2018-02-14T23:51:18.298Z,9.83
2018-02-14T23:53:45.793Z,10.57
2018-02-14T23:56:14.034Z,10.30
2018-02-14T23:58:42.377Z,10.27
